createdAt,value
2018-11-21T00:00:07.625Z,0.00
2018-11-21T00:01:07.865Z,0.00
2018-11-21T00:02:08.420Z,0.00
2018-11-21T00:03:08.518Z,0.00
2018-11-21T00:04:08.592Z,0.00
2018-11-21T00:05:08.689Z,0.00
2018-11-21T00:06:08.765Z,0.00
2018-11-21T00:07:08.858Z,0.00
2018-11-21T00:08:08.645Z,0.00
2018-11-21T00:09:09.220Z,0.00
2018-11-21T00:10:09.154Z,0.00
2018-11-21T00:11:09.476Z,0.00
2018-11-21T00:12:09.737Z,0.00
2018-11-21T00:13:10.276Z,0.00
2018-11-21T00:14:10.114Z,0.00
2018-11-21T00:15:10.387Z,0.00
2018-11-21T00:16:11.051Z,0.00
2018-11-21T00:17:11.317Z,0.00
2018-11-21T00:18:11.567Z,0.00
2018-11-21T00:19:11.980Z,0.00
2018-11-21T00:20:12.250Z,0.00
2018-11-21T00:21:12.709Z,0.00
2018-11-21T00:22:12.981Z,0.00
2018-11-21T00:23:13.241Z,0.00
2018-11-21T00:24:13.561Z,0.00
2018-11-21T00:25:13.826Z,0.00
2018-11-21T00:26:14.092Z,0.00
2018-11-21T00:27:14.350Z,0.00
2018-11-21T00:28:14.629Z,0.00
2018-11-21T00:29:14.942Z,0.00
2018-11-21T00:30:15.540Z,0.00
2018-11-21T00:31:15.330Z,0.00
2018-11-21T00:32:15.631Z,0.00
2018-11-21T00:33:15.874Z,0.00
2018-11-21T00:34:16.190Z,0.00
2018-11-21T00:35:16.553Z,0.00
2018-11-21T00:36:16.832Z,0.00
2018-11-21T00:37:17.110Z,0.00
2018-11-21T00:38:17.184Z,0.00
2018-11-21T00:39:17.464Z,0.00
2018-11-21T00:40:17.809Z,0.00
2018-11-21T00:41:18.269Z,0.00
2018-11-21T00:42:18.898Z,0.00
2018-11-21T00:43:18.987Z,0.00
2018-11-21T00:44:19.097Z,0.00
2018-11-21T00:45:19.206Z,0.00
2018-11-21T00:46:19.338Z,0.00
2018-11-21T00:47:19.456Z,0.00
2018-11-21T00:48:19.545Z,0.00
2018-11-21T00:49:19.683Z,0.00
2018-11-21T00:50:19.863Z,0.00
2018-11-21T00:51:20.024Z,0.00
2018-11-21T00:52:20.182Z,0.00
2018-11-21T00:53:20.313Z,0.00
2018-11-21T00:54:20.467Z,0.00
2018-11-21T00:55:20.622Z,0.00
2018-11-21T00:56:20.777Z,0.00
2018-11-21T00:57:20.923Z,0.00
2018-11-21T00:58:20.982Z,0.00
2018-11-21T00:59:21.110Z,0.00
2018-11-21T01:00:21.258Z,0.00
2018-11-21T01:01:21.438Z,0.00
2018-11-21T01:02:21.516Z,0.00
2018-11-21T01:03:21.663Z,0.00
2018-11-21T01:04:21.827Z,0.00
2018-11-21T01:05:21.916Z,0.00
2018-11-21T01:06:22.019Z,0.00
2018-11-21T01:07:22.116Z,0.00
2018-11-21T01:08:22.538Z,0.00
2018-11-21T01:09:22.620Z,0.00
2018-11-21T01:10:22.683Z,0.00
2018-11-21T01:11:22.750Z,0.00
2018-11-21T01:12:22.822Z,0.00
2018-11-21T01:13:22.911Z,0.00
2018-11-21T01:14:23.074Z,0.00
2018-11-21T01:15:23.213Z,0.00
2018-11-21T01:16:23.322Z,0.00
2018-11-21T01:17:23.407Z,0.00
2018-11-21T01:18:23.507Z,0.00
2018-11-21T01:19:23.577Z,0.00
2018-11-21T01:20:23.667Z,0.00
2018-11-21T01:21:23.741Z,0.00
2018-11-21T01:22:23.801Z,0.00
2018-11-21T01:24:23.863Z,0.00
2018-11-21T01:25:23.945Z,0.00
2018-11-21T01:26:23.940Z,0.00
2018-11-21T01:27:24.045Z,0.00
2018-11-21T01:28:24.128Z,0.00
2018-11-21T01:29:24.132Z,0.00
2018-11-21T01:30:23.969Z,0.00
2018-11-21T01:31:24.250Z,0.00
2018-11-21T01:32:24.529Z,0.00
2018-11-21T01:33:24.806Z,0.00
2018-11-21T01:34:25.108Z,0.00
2018-11-21T01:35:25.416Z,0.00
2018-11-21T01:36:25.687Z,0.00
2018-11-21T01:37:26.157Z,0.00
2018-11-21T01:38:26.485Z,0.00
2018-11-21T01:39:26.766Z,0.00
2018-11-21T01:40:27.199Z,0.00
2018-11-21T01:41:27.465Z,0.00
2018-11-21T01:42:27.813Z,0.00
2018-11-21T01:43:28.092Z,0.00
2018-11-21T01:44:28.499Z,0.00
2018-11-21T01:45:28.783Z,0.00
2018-11-21T01:46:29.138Z,0.00
2018-11-21T01:47:29.419Z,0.00
2018-11-21T01:48:29.714Z,0.00
2018-11-21T01:49:30.022Z,0.00
2018-11-21T01:50:30.295Z,0.00
2018-11-21T01:51:30.593Z,0.00
2018-11-21T01:52:30.861Z,0.00
2018-11-21T01:53:31.127Z,0.00
2018-11-21T01:54:31.412Z,0.00
2018-11-21T01:55:31.673Z,0.00
2018-11-21T01:56:32.008Z,0.00
2018-11-21T01:57:32.311Z,0.00
2018-11-21T01:58:32.606Z,0.00
2018-11-21T01:59:32.897Z,0.00
2018-11-21T02:00:33.490Z,0.00
2018-11-21T02:01:33.511Z,0.00
2018-11-21T02:02:33.612Z,0.00
2018-11-21T02:03:33.781Z,0.00
2018-11-21T02:04:34.092Z,0.00
2018-11-21T02:05:34.211Z,0.00
2018-11-21T02:06:34.344Z,0.00
2018-11-21T02:07:34.544Z,0.00
2018-11-21T02:08:34.686Z,0.00
2018-11-21T02:09:34.843Z,0.00
2018-11-21T02:10:35.004Z,0.00
2018-11-21T02:11:35.189Z,0.00
2018-11-21T02:12:35.369Z,0.00
2018-11-21T02:13:35.509Z,0.00
2018-11-21T02:14:35.657Z,0.00
2018-11-21T02:15:35.840Z,0.00
2018-11-21T02:16:36.026Z,0.00
2018-11-21T02:17:36.135Z,0.00
2018-11-21T02:18:36.200Z,0.00
2018-11-21T02:19:36.307Z,0.00
2018-11-21T02:20:36.407Z,0.00
2018-11-21T02:21:36.454Z,0.00
2018-11-21T02:22:36.519Z,0.00
2018-11-21T02:23:36.771Z,0.00
2018-11-21T02:24:37.109Z,0.00
2018-11-21T02:25:37.203Z,0.00
2018-11-21T02:26:37.347Z,0.00
2018-11-21T02:27:37.457Z,0.00
2018-11-21T02:28:37.553Z,0.00
2018-11-21T02:29:37.641Z,0.00
2018-11-21T02:31:37.730Z,0.00
2018-11-21T02:32:37.822Z,0.00
2018-11-21T02:34:37.898Z,0.00
2018-11-21T02:35:37.982Z,0.00
2018-11-21T02:36:38.075Z,0.00
2018-11-21T02:37:38.175Z,0.00
2018-11-21T02:38:38.241Z,0.00
2018-11-21T02:39:38.312Z,0.00
2018-11-21T02:40:38.497Z,0.00
2018-11-21T02:41:38.562Z,0.00
2018-11-21T02:42:38.664Z,0.00
2018-11-21T02:43:38.966Z,0.00
2018-11-21T02:44:39.060Z,0.00
2018-11-21T02:45:39.167Z,0.00
2018-11-21T02:46:39.250Z,0.00
2018-11-21T02:47:39.224Z,0.00
2018-11-21T02:48:39.519Z,0.00
2018-11-21T02:49:39.791Z,0.00
2018-11-21T02:50:40.123Z,0.00
2018-11-21T02:51:40.418Z,0.00
2018-11-21T02:52:40.685Z,0.00
2018-11-21T02:54:41.104Z,0.00
2018-11-21T02:55:41.408Z,0.00
2018-11-21T02:56:41.683Z,0.00
2018-11-21T02:57:41.855Z,0.00
2018-11-21T02:58:42.120Z,0.00
2018-11-21T02:59:42.446Z,0.00
2018-11-21T03:00:42.483Z,0.00
2018-11-21T03:01:42.700Z,0.00
2018-11-21T03:02:42.975Z,0.00
2018-11-21T03:03:43.238Z,0.00
2018-11-21T03:04:43.498Z,0.00
2018-11-21T03:05:43.779Z,0.00
2018-11-21T03:06:44.055Z,0.00
2018-11-21T03:07:44.392Z,0.00
2018-11-21T03:08:44.744Z,0.00
2018-11-21T03:09:45.039Z,0.00
2018-11-21T03:10:45.359Z,0.00
2018-11-21T03:11:45.623Z,0.00
2018-11-21T03:12:46.091Z,0.00
2018-11-21T03:13:46.847Z,0.00
2018-11-21T03:14:46.643Z,0.00
2018-11-21T03:15:46.942Z,0.00
2018-11-21T03:16:47.279Z,0.00
2018-11-21T03:17:47.590Z,0.00
2018-11-21T03:18:47.895Z,0.00
2018-11-21T03:19:48.326Z,0.00
2018-11-21T03:20:48.971Z,0.00
2018-11-21T03:21:49.092Z,0.00
2018-11-21T03:22:49.219Z,0.00
2018-11-21T03:23:49.329Z,0.00
2018-11-21T03:24:49.450Z,0.00
2018-11-21T03:25:49.548Z,0.00
2018-11-21T03:26:49.703Z,0.00
2018-11-21T03:27:50.006Z,0.00
2018-11-21T03:28:50.121Z,0.00
2018-11-21T03:29:50.393Z,0.00
2018-11-21T03:30:50.578Z,0.00
2018-11-21T03:31:50.717Z,0.00
2018-11-21T03:32:50.887Z,0.00
2018-11-21T03:33:57.675Z,0.00
2018-11-21T03:34:51.093Z,0.00
2018-11-21T03:35:51.154Z,0.00
2018-11-21T03:36:51.208Z,0.00
2018-11-21T03:37:51.516Z,0.00
2018-11-21T03:38:51.904Z,0.00
2018-11-21T03:39:51.950Z,0.00
2018-11-21T03:40:52.182Z,0.00
2018-11-21T03:41:52.267Z,0.00
2018-11-21T03:42:52.342Z,0.00
2018-11-21T03:43:52.408Z,0.00
2018-11-21T03:44:52.464Z,0.00
2018-11-21T03:45:52.578Z,0.00
2018-11-21T03:46:52.665Z,0.00
2018-11-21T03:47:52.749Z,0.00
2018-11-21T03:48:52.811Z,0.00
2018-11-21T03:49:52.867Z,0.00
2018-11-21T03:50:52.960Z,0.00
2018-11-21T03:51:53.037Z,0.00
2018-11-21T03:52:53.139Z,0.00
2018-11-21T03:53:53.223Z,0.00
2018-11-21T03:54:53.336Z,0.00
2018-11-21T03:55:53.422Z,0.00
2018-11-21T03:56:53.547Z,0.00
2018-11-21T03:57:53.610Z,0.00
2018-11-21T03:58:53.731Z,0.00
2018-11-21T03:59:53.812Z,0.00
2018-11-21T04:00:53.893Z,0.00
2018-11-21T04:01:53.903Z,0.00
2018-11-21T04:02:53.921Z,0.00
2018-11-21T04:03:53.929Z,0.00
2018-11-21T04:04:53.996Z,0.00
2018-11-21T04:05:54.301Z,0.00
2018-11-21T04:06:54.570Z,0.00
2018-11-21T04:07:54.892Z,0.00
2018-11-21T04:08:55.249Z,0.00
2018-11-21T04:09:55.630Z,0.00
2018-11-21T04:10:55.901Z,0.00
2018-11-21T04:11:56.302Z,0.00
2018-11-21T04:12:56.794Z,0.00
2018-11-21T04:13:57.072Z,0.00
2018-11-21T04:14:57.352Z,0.00
2018-11-21T04:15:57.647Z,0.00
2018-11-21T04:16:57.934Z,0.00
2018-11-21T04:17:58.214Z,0.00
2018-11-21T04:18:58.499Z,0.00
2018-11-21T04:19:58.749Z,0.00
2018-11-21T04:20:59.284Z,0.00
2018-11-21T04:21:59.218Z,0.00
2018-11-21T04:22:59.805Z,0.00
2018-11-21T04:23:59.824Z,0.00
2018-11-21T04:24:59.627Z,0.00
2018-11-21T04:26:00.046Z,0.00
2018-11-21T04:27:00.361Z,0.00
2018-11-21T04:28:00.636Z,0.00
2018-11-21T04:29:00.894Z,0.00
2018-11-21T04:30:01.218Z,0.00
2018-11-21T04:31:01.339Z,0.00
2018-11-21T04:33:01.806Z,0.00
2018-11-21T04:34:02.052Z,0.00
2018-11-21T04:35:01.997Z,0.00
2018-11-21T04:36:02.476Z,0.00
2018-11-21T04:37:02.350Z,0.00
2018-11-21T04:38:02.640Z,0.00
2018-11-21T04:39:03.018Z,0.00
2018-11-21T04:40:03.525Z,0.00
2018-11-21T04:41:03.570Z,0.00
2018-11-21T04:42:03.708Z,0.00
2018-11-21T04:43:03.843Z,0.00
2018-11-21T04:44:03.989Z,0.00
2018-11-21T04:45:04.191Z,0.00
2018-11-21T04:46:04.219Z,0.00
2018-11-21T04:47:04.503Z,0.00
2018-11-21T04:48:04.660Z,0.00
2018-11-21T04:49:04.823Z,0.00
2018-11-21T04:50:04.988Z,0.00
2018-11-21T04:51:05.210Z,0.00
2018-11-21T04:52:05.339Z,0.00
2018-11-21T04:53:05.478Z,0.00
2018-11-21T04:54:05.677Z,0.00
2018-11-21T04:55:05.816Z,0.00
2018-11-21T04:56:06.186Z,0.00
2018-11-21T04:57:06.312Z,0.00
2018-11-21T04:58:06.472Z,0.00
2018-11-21T04:59:06.550Z,0.00
2018-11-21T05:00:06.737Z,0.00
2018-11-21T05:01:06.899Z,0.00
2018-11-21T05:02:07.011Z,0.00
2018-11-21T05:03:07.168Z,0.00
2018-11-21T05:04:07.266Z,0.00
2018-11-21T05:05:07.373Z,0.00
2018-11-21T05:06:07.586Z,0.00
2018-11-21T05:07:07.699Z,0.00
2018-11-21T05:08:07.820Z,0.00
2018-11-21T05:09:07.913Z,0.00
2018-11-21T05:10:08.033Z,0.00
2018-11-21T05:11:08.154Z,0.00
2018-11-21T05:12:08.252Z,0.00
2018-11-21T05:13:08.356Z,0.00
2018-11-21T05:14:08.128Z,0.00
2018-11-21T05:15:08.735Z,0.00
2018-11-21T05:16:08.757Z,0.00
2018-11-21T05:17:08.697Z,0.00
2018-11-21T05:18:09.434Z,0.00
2018-11-21T05:19:09.632Z,0.00
2018-11-21T05:20:09.536Z,0.00
2018-11-21T05:21:09.870Z,0.00
2018-11-21T05:22:10.175Z,0.00
2018-11-21T05:23:10.462Z,0.00
2018-11-21T05:24:11.095Z,0.00
2018-11-21T05:25:10.907Z,0.00
2018-11-21T05:26:11.160Z,0.00
2018-11-21T05:27:11.453Z,0.00
2018-11-21T05:28:11.759Z,0.00
2018-11-21T05:29:12.111Z,0.00
2018-11-21T05:30:12.392Z,0.00
2018-11-21T05:31:12.889Z,0.00
2018-11-21T05:32:12.738Z,0.00
2018-11-21T05:33:13.023Z,0.00
2018-11-21T05:34:13.280Z,0.00
2018-11-21T05:35:13.665Z,0.00
2018-11-21T05:36:13.913Z,0.00
2018-11-21T05:37:14.207Z,0.00
2018-11-21T05:38:14.563Z,0.00
2018-11-21T05:39:14.852Z,0.00
2018-11-21T05:40:15.390Z,0.00
2018-11-21T05:42:15.185Z,0.00
2018-11-21T05:43:15.464Z,0.00
2018-11-21T05:44:15.747Z,0.00
2018-11-21T05:45:16.321Z,0.00
2018-11-21T05:46:16.116Z,0.00
2018-11-21T05:47:16.436Z,0.00
2018-11-21T05:48:16.731Z,0.00
2018-11-21T05:49:17.021Z,0.00
2018-11-21T05:50:17.646Z,0.00
2018-11-21T05:51:17.675Z,0.00
2018-11-21T05:52:17.442Z,0.00
2018-11-21T05:53:18.014Z,0.00
2018-11-21T05:54:17.873Z,0.00
2018-11-21T05:55:18.436Z,0.00
2018-11-21T05:56:18.585Z,0.00
2018-11-21T05:57:18.783Z,0.00
2018-11-21T05:58:19.005Z,0.00
2018-11-21T05:59:19.181Z,0.00
2018-11-21T06:00:19.327Z,0.00
2018-11-21T06:01:19.432Z,0.00
2018-11-21T06:02:19.688Z,0.00
2018-11-21T06:03:19.756Z,0.00
2018-11-21T06:04:19.936Z,0.00
2018-11-21T06:05:20.181Z,0.00
2018-11-21T06:06:20.319Z,0.00
2018-11-21T06:07:20.410Z,1.00
2018-11-21T06:08:20.561Z,1.00
2018-11-21T06:09:20.728Z,1.00
2018-11-21T06:10:20.854Z,2.00
2018-11-21T06:11:20.960Z,2.00
2018-11-21T06:12:21.102Z,2.00
2018-11-21T06:13:21.159Z,3.00
2018-11-21T06:14:21.251Z,2.00
2018-11-21T06:15:21.305Z,3.00
2018-11-21T06:16:21.379Z,3.00
2018-11-21T06:17:21.492Z,4.00
2018-11-21T06:18:21.507Z,4.00
2018-11-21T06:19:21.653Z,5.00
2018-11-21T06:20:21.720Z,6.00
2018-11-21T06:21:21.822Z,7.00
2018-11-21T06:22:21.923Z,8.00
2018-11-21T06:23:22.032Z,10.00
2018-11-21T06:24:22.166Z,13.00
2018-11-21T06:25:22.234Z,15.00
2018-11-21T06:26:22.321Z,17.00
2018-11-21T06:27:22.392Z,20.00
2018-11-21T06:28:22.465Z,23.00
2018-11-21T06:29:22.562Z,27.00
2018-11-21T06:30:25.378Z,32.00
2018-11-21T06:31:22.953Z,38.00
2018-11-21T06:32:23.025Z,43.00
2018-11-21T06:33:23.101Z,47.00
2018-11-21T06:34:23.178Z,50.00
2018-11-21T06:35:23.277Z,56.00
2018-11-21T06:36:23.418Z,61.00
2018-11-21T06:37:23.476Z,69.00
2018-11-21T06:38:23.671Z,77.00
2018-11-21T06:39:23.757Z,86.00
2018-11-21T06:40:23.835Z,97.00
2018-11-21T06:41:23.877Z,108.00
2018-11-21T06:42:23.890Z,122.00
2018-11-21T06:43:23.972Z,136.00
2018-11-21T06:44:24.065Z,150.00
2018-11-21T06:45:24.165Z,164.00
2018-11-21T06:46:24.661Z,175.00
2018-11-21T06:47:24.745Z,187.00
2018-11-21T06:48:24.478Z,200.00
2018-11-21T06:49:24.742Z,218.00
2018-11-21T06:50:25.025Z,228.00
2018-11-21T06:51:25.301Z,245.00
2018-11-21T06:52:25.762Z,263.00
2018-11-21T06:53:26.025Z,282.00
2018-11-21T06:54:26.427Z,295.00
2018-11-21T06:55:26.706Z,309.00
2018-11-21T06:56:26.968Z,324.00
2018-11-21T06:57:27.376Z,338.00
2018-11-21T06:58:27.651Z,354.00
2018-11-21T06:59:27.949Z,367.00
2018-11-21T07:00:28.235Z,384.00
2018-11-21T07:01:28.498Z,407.00
2018-11-21T07:02:29.004Z,437.00
2018-11-21T07:03:29.261Z,467.00
2018-11-21T07:04:29.531Z,494.00
2018-11-21T07:05:29.896Z,521.00
2018-11-21T07:06:30.213Z,540.00
2018-11-21T07:07:30.718Z,560.00
2018-11-21T07:08:30.710Z,577.00
2018-11-21T07:09:30.996Z,598.00
2018-11-21T07:10:31.267Z,618.00
2018-11-21T07:11:31.555Z,635.00
2018-11-21T07:12:32.010Z,652.00
2018-11-21T07:13:32.303Z,682.00
2018-11-21T07:14:32.588Z,717.00
2018-11-21T07:15:33.310Z,740.00
2018-11-21T07:16:33.390Z,773.00
2018-11-21T07:17:33.484Z,805.00
2018-11-21T07:18:33.701Z,854.00
2018-11-21T07:19:33.796Z,906.00
2018-11-21T07:20:33.922Z,934.00
2018-11-21T07:21:34.087Z,912.00
2018-11-21T07:22:34.204Z,941.00
2018-11-21T07:23:34.578Z,989.00
2018-11-21T07:24:34.752Z,1033.00
2018-11-21T07:25:34.920Z,1063.00
2018-11-21T07:26:35.090Z,1050.00
2018-11-21T07:27:35.315Z,1032.00
2018-11-21T07:28:35.451Z,1002.00
2018-11-21T07:29:35.667Z,1039.00
2018-11-21T07:30:35.794Z,1094.00
2018-11-21T07:31:35.890Z,1116.00
2018-11-21T07:32:36.041Z,1096.00
2018-11-21T07:33:36.124Z,1096.00
2018-11-21T07:34:36.226Z,1075.00
2018-11-21T07:35:36.328Z,1071.00
2018-11-21T07:36:36.373Z,1100.00
2018-11-21T07:37:36.436Z,1074.00
2018-11-21T07:38:36.654Z,1031.00
2018-11-21T07:39:36.742Z,1036.00
2018-11-21T07:40:36.876Z,1063.00
2018-11-21T07:41:37.005Z,1110.00
2018-11-21T07:42:37.131Z,1170.00
2018-11-21T07:43:37.236Z,1183.00
2018-11-21T07:44:37.323Z,1149.00
2018-11-21T07:45:37.426Z,1182.00
2018-11-21T07:46:37.549Z,1251.00
2018-11-21T07:47:37.655Z,1263.00
2018-11-21T07:48:37.659Z,1347.00
2018-11-21T07:49:37.748Z,1441.00
2018-11-21T07:50:37.817Z,1512.00
2018-11-21T07:51:37.920Z,1567.00
2018-11-21T07:52:37.983Z,1595.00
2018-11-21T07:53:38.285Z,1577.00
2018-11-21T07:54:38.383Z,1598.00
2018-11-21T07:55:38.719Z,1588.00
2018-11-21T07:56:38.887Z,1648.00
2018-11-21T07:57:39.042Z,1696.00
2018-11-21T07:58:39.253Z,1804.00
2018-11-21T07:59:39.637Z,1946.00
2018-11-21T08:00:39.732Z,2001.00
2018-11-21T08:01:40.183Z,1930.00
2018-11-21T08:02:40.221Z,1894.00
2018-11-21T08:03:40.708Z,1888.00
2018-11-21T08:04:40.890Z,1922.00
2018-11-21T08:05:44.270Z,1999.00
2018-11-21T08:06:41.305Z,2083.00
2018-11-21T08:07:41.585Z,2096.00
2018-11-21T08:08:41.712Z,2047.00
2018-11-21T08:09:42.353Z,2083.00
2018-11-21T08:10:42.255Z,2096.00
2018-11-21T08:11:42.582Z,2170.00
2018-11-21T08:12:42.844Z,2274.00
2018-11-21T08:13:43.256Z,2280.00
2018-11-21T08:14:43.710Z,2468.00
2018-11-21T08:15:44.125Z,2578.00
2018-11-21T08:16:44.567Z,2618.00
2018-11-21T08:17:45.006Z,2629.00
2018-11-21T08:18:45.013Z,2588.00
2018-11-21T08:29:46.337Z,2401.00
2018-11-21T08:30:46.863Z,2432.00
2018-11-21T08:40:47.802Z,2900.00
2018-11-21T08:41:48.331Z,2821.00
2018-11-21T08:42:48.303Z,2784.00
2018-11-21T08:43:48.298Z,2643.00
2018-11-21T08:44:48.897Z,2623.00
2018-11-21T08:45:49.007Z,2712.00
2018-11-21T08:46:49.170Z,2761.00
2018-11-21T08:47:49.399Z,2759.00
2018-11-21T08:48:49.565Z,2800.00
2018-11-21T08:49:49.707Z,2824.00
2018-11-21T08:50:49.829Z,2777.00
2018-11-21T08:51:50.083Z,2790.00
2018-11-21T08:52:50.242Z,2904.00
2018-11-21T08:53:50.414Z,2953.00
2018-11-21T08:54:50.527Z,2971.00
2018-11-21T08:55:50.643Z,3034.00
2018-11-21T08:56:50.768Z,3179.00
2018-11-21T08:57:50.873Z,3297.00
2018-11-21T08:58:51.000Z,3307.00
2018-11-21T08:59:51.025Z,3358.00
2018-11-21T09:00:51.082Z,3284.00
2018-11-21T09:01:51.139Z,3304.00
2018-11-21T09:02:51.227Z,3576.00
2018-11-21T09:03:51.424Z,3753.00
2018-11-21T09:04:51.496Z,3755.00
2018-11-21T09:05:51.619Z,3705.00
2018-11-21T09:06:51.648Z,3598.00
2018-11-21T09:07:51.734Z,3592.00
2018-11-21T09:08:51.863Z,3533.00
2018-11-21T09:09:51.973Z,3559.00
2018-11-21T09:10:52.708Z,3601.00
2018-11-21T09:11:52.143Z,3737.00
2018-11-21T09:12:52.233Z,3659.00
2018-11-21T09:14:52.345Z,3607.00
2018-11-21T09:15:53.424Z,3867.00
2018-11-21T09:16:52.461Z,3982.00
2018-11-21T09:17:52.525Z,4073.00
2018-11-21T09:18:52.583Z,4084.00
2018-11-21T09:19:52.650Z,4034.00
2018-11-21T09:20:52.711Z,4115.00
2018-11-21T09:21:52.756Z,4203.00
2018-11-21T09:22:52.822Z,3987.00
2018-11-21T09:23:52.882Z,3704.00
2018-11-21T09:24:52.966Z,3667.00
2018-11-21T09:25:53.032Z,3717.00
2018-11-21T09:26:53.110Z,3765.00
2018-11-21T09:27:53.224Z,3906.00
2018-11-21T09:28:53.314Z,4084.00
2018-11-21T09:29:53.541Z,4206.00
2018-11-21T09:30:53.615Z,4356.00
2018-11-21T09:31:53.701Z,4089.00
2018-11-21T09:32:53.804Z,3984.00
2018-11-21T09:33:53.868Z,4014.00
2018-11-21T09:34:53.877Z,3992.00
2018-11-21T09:35:53.850Z,3974.00
2018-11-21T09:36:54.163Z,4001.00
2018-11-21T09:37:54.483Z,4138.00
2018-11-21T09:38:54.745Z,4361.00
2018-11-21T09:39:55.068Z,4258.00
2018-11-21T09:40:55.331Z,4458.00
2018-11-21T09:41:55.589Z,4719.00
2018-11-21T09:42:55.872Z,4878.00
2018-11-21T09:43:56.158Z,5078.00
2018-11-21T09:44:56.430Z,5350.00
2018-11-21T09:45:56.839Z,5252.00
2018-11-21T09:46:57.110Z,5381.00
2018-11-21T09:47:57.367Z,5549.00
2018-11-21T09:48:57.629Z,5738.00
2018-11-21T09:49:57.898Z,5754.00
2018-11-21T09:50:58.288Z,5729.00
2018-11-21T09:51:58.528Z,5709.00
2018-11-21T09:52:58.796Z,6063.00
2018-11-21T09:53:59.044Z,6521.00
2018-11-21T09:54:59.538Z,6428.00
2018-11-21T09:55:59.785Z,6163.00
2018-11-21T09:57:00.134Z,6286.00
2018-11-21T09:58:00.408Z,6034.00
2018-11-21T09:59:00.680Z,5935.00
2018-11-21T10:00:00.995Z,6036.00
2018-11-21T10:01:01.450Z,5837.00
2018-11-21T10:02:01.782Z,5949.00
2018-11-21T10:03:01.948Z,5860.00
2018-11-21T10:04:02.187Z,5797.00
2018-11-21T10:05:02.556Z,5992.00
2018-11-21T10:06:03.152Z,6212.00
2018-11-21T10:07:03.520Z,6299.00
2018-11-21T10:08:03.642Z,6456.00
2018-11-21T10:09:03.869Z,6249.00
2018-11-21T10:10:04.310Z,6029.00
2018-11-21T10:11:04.429Z,5951.00
2018-11-21T10:12:04.506Z,5959.00
2018-11-21T10:13:04.588Z,6326.00
2018-11-21T10:14:04.706Z,6607.00
2018-11-21T10:16:04.812Z,5822.00
2018-11-21T10:17:04.931Z,5653.00
2018-11-21T10:18:05.025Z,5632.00
2018-11-21T10:19:05.190Z,5549.00
2018-11-21T10:20:05.323Z,5618.00
2018-11-21T10:21:05.461Z,5796.00
2018-11-21T10:22:05.673Z,5856.00
2018-11-21T10:23:05.776Z,5744.00
2018-11-21T10:24:05.906Z,5751.00
2018-11-21T10:25:06.015Z,5471.00
2018-11-21T10:26:06.102Z,5394.00
2018-11-21T10:27:06.515Z,5355.00
2018-11-21T10:28:06.600Z,5192.00
2018-11-21T10:29:06.767Z,5359.00
2018-11-21T10:30:06.943Z,5338.00
2018-11-21T10:31:07.075Z,5381.00
2018-11-21T10:32:07.150Z,5466.00
2018-11-21T10:33:07.230Z,5248.00
2018-11-21T10:34:07.349Z,5121.00
2018-11-21T10:35:07.489Z,5115.00
2018-11-21T10:36:07.563Z,4984.00
2018-11-21T10:37:07.627Z,4838.00
2018-11-21T10:38:07.645Z,4730.00
2018-11-21T10:39:07.710Z,4604.00
2018-11-21T10:40:08.025Z,4704.00
2018-11-21T10:41:08.073Z,5003.00
2018-11-21T10:42:08.205Z,4858.00
2018-11-21T10:43:07.960Z,4899.00
2018-11-21T10:44:08.900Z,4998.00
2018-11-21T10:45:09.539Z,4963.00
2018-11-21T10:46:09.327Z,4992.00
2018-11-21T10:47:09.730Z,5081.00
2018-11-21T10:48:09.974Z,5187.00
2018-11-21T10:49:10.355Z,5143.00
2018-11-21T10:50:10.780Z,5298.00
2018-11-21T10:51:11.064Z,5539.00
2018-11-21T10:53:11.528Z,5593.00
2018-11-21T10:54:11.438Z,5507.00
2018-11-21T10:55:11.746Z,5268.00
2018-11-21T10:56:12.012Z,5436.00
2018-11-21T10:57:12.331Z,5713.00
2018-11-21T10:58:12.595Z,5922.00
2018-11-21T10:59:12.891Z,5797.00
2018-11-21T11:00:13.327Z,5550.00
2018-11-21T11:01:13.270Z,5508.00
2018-11-21T11:02:13.580Z,5474.00
2018-11-21T11:03:14.079Z,5358.00
2018-11-21T11:04:14.219Z,5355.00
2018-11-21T11:05:14.741Z,5410.00
2018-11-21T11:06:14.672Z,5432.00
2018-11-21T11:07:14.825Z,5436.00
2018-11-21T11:08:15.252Z,5331.00
2018-11-21T11:09:15.652Z,5381.00
2018-11-21T11:10:16.105Z,5387.00
2018-11-21T11:11:16.007Z,5339.00
2018-11-21T11:12:16.732Z,5248.00
2018-11-21T11:13:16.741Z,5175.00
2018-11-21T11:14:16.654Z,5284.00
2018-11-21T11:15:16.800Z,5438.00
2018-11-21T11:16:16.724Z,5481.00
2018-11-21T11:17:17.072Z,5436.00
2018-11-21T11:18:17.484Z,5378.00
2018-11-21T11:19:17.968Z,5440.00
2018-11-21T11:20:18.303Z,5352.00
2018-11-21T11:21:18.992Z,5232.00
2018-11-21T11:23:19.308Z,5519.00
2018-11-21T11:24:19.613Z,5702.00
2018-11-21T11:25:19.907Z,5674.00
2018-11-21T11:26:20.370Z,5829.00
2018-11-21T11:27:20.641Z,6141.00
2018-11-21T11:28:20.888Z,6431.00
2018-11-21T11:29:21.079Z,6719.00
2018-11-21T11:30:21.139Z,6803.00
2018-11-21T11:31:21.579Z,6621.00
2018-11-21T11:32:21.849Z,6367.00
2018-11-21T11:33:22.236Z,6243.00
2018-11-21T11:34:22.273Z,6383.00
2018-11-21T11:35:22.463Z,6353.00
2018-11-21T11:36:22.838Z,6250.00
2018-11-21T11:37:23.079Z,6323.00
2018-11-21T11:38:23.096Z,6414.00
2018-11-21T11:39:23.425Z,6394.00
2018-11-21T11:40:23.698Z,6199.00
2018-11-21T11:41:23.877Z,6022.00
2018-11-21T11:42:24.005Z,6013.00
2018-11-21T11:43:23.981Z,6142.00
2018-11-21T11:44:24.072Z,5995.00
2018-11-21T11:45:24.134Z,6119.00
2018-11-21T11:46:24.055Z,6179.00
2018-11-21T11:47:24.129Z,6046.00
2018-11-21T11:48:24.517Z,6066.00
2018-11-21T11:49:24.929Z,6258.00
2018-11-21T11:50:25.505Z,6202.00
2018-11-21T11:51:25.693Z,6112.00
2018-11-21T11:52:25.851Z,6047.00
2018-11-21T11:53:26.186Z,6089.00
2018-11-21T11:54:26.636Z,6110.00
2018-11-21T11:55:27.026Z,6243.00
2018-11-21T11:56:27.431Z,6310.00
2018-11-21T11:57:27.777Z,6204.00
2018-11-21T11:58:28.155Z,6096.00
2018-11-21T11:59:28.465Z,6008.00
2018-11-21T12:00:28.535Z,6004.00
2018-11-21T12:01:28.652Z,5953.00
2018-11-21T12:02:29.078Z,5968.00
2018-11-21T12:03:29.498Z,5943.00
2018-11-21T12:04:30.098Z,6014.00
2018-11-21T12:05:30.002Z,5942.00
2018-11-21T12:06:30.336Z,5881.00
2018-11-21T12:07:30.510Z,6017.00
2018-11-21T12:08:30.930Z,6035.00
2018-11-21T12:09:31.397Z,6012.00
2018-11-21T12:10:31.802Z,5788.00
2018-11-21T12:11:31.911Z,5388.00
2018-11-21T12:12:32.882Z,4707.00
2018-11-21T12:13:32.522Z,4262.00
2018-11-21T12:14:33.054Z,4256.00
2018-11-21T12:15:33.658Z,4772.00
2018-11-21T12:16:33.872Z,5314.00
2018-11-21T12:17:34.063Z,5638.00
2018-11-21T12:18:34.432Z,5641.00
2018-11-21T12:19:34.741Z,5525.00
2018-11-21T12:20:35.047Z,5313.00
2018-11-21T12:22:35.423Z,5012.00
2018-11-21T12:23:35.671Z,4938.00
2018-11-21T12:24:36.032Z,4919.00
2018-11-21T12:25:36.244Z,4922.00
2018-11-21T12:26:36.465Z,4738.00
2018-11-21T12:27:36.822Z,4619.00
2018-11-21T12:28:36.909Z,4696.00
2018-11-21T12:29:37.141Z,4722.00
2018-11-21T12:30:37.014Z,4762.00
2018-11-21T12:31:37.821Z,4757.00
2018-11-21T12:32:39.312Z,4559.00
2018-11-21T12:33:38.065Z,4403.00
2018-11-21T12:35:38.290Z,3995.00
2018-11-21T12:36:38.316Z,3975.00
2018-11-21T12:37:38.473Z,4097.00
2018-11-21T12:38:38.854Z,4245.00
2018-11-21T12:39:38.850Z,4365.00
2018-11-21T12:40:38.998Z,4515.00
2018-11-21T12:41:39.010Z,4714.00
2018-11-21T12:42:39.160Z,4871.00
2018-11-21T12:43:39.155Z,4887.00
2018-11-21T12:44:39.583Z,4854.00
2018-11-21T12:45:39.762Z,4842.00
2018-11-21T12:46:39.733Z,4820.00
2018-11-21T12:47:39.816Z,4789.00
2018-11-21T12:48:40.243Z,4745.00
2018-11-21T12:49:40.693Z,4572.00
2018-11-21T12:50:40.764Z,4503.00
2018-11-21T12:51:40.793Z,4581.00
2018-11-21T12:52:41.106Z,4570.00
2018-11-21T12:53:41.367Z,4688.00
2018-11-21T12:54:41.485Z,4863.00
2018-11-21T12:55:41.520Z,4771.00
2018-11-21T12:56:41.715Z,4558.00
2018-11-21T12:57:42.113Z,4451.00
2018-11-21T12:58:42.436Z,4303.00
2018-11-21T12:59:42.908Z,4108.00
2018-11-21T13:00:43.372Z,3960.00
2018-11-21T13:01:43.592Z,3857.00
2018-11-21T13:02:43.762Z,3823.00
2018-11-21T13:03:43.926Z,3747.00
2018-11-21T13:04:44.404Z,3652.00
2018-11-21T13:05:44.606Z,3627.00
2018-11-21T13:06:45.018Z,3787.00
2018-11-21T13:07:45.512Z,3989.00
2018-11-21T13:08:45.547Z,4068.00
2018-11-21T13:09:45.961Z,4056.00
2018-11-21T13:10:46.160Z,4024.00
2018-11-21T13:11:46.526Z,4033.00
2018-11-21T13:12:46.988Z,3955.00
2018-11-21T13:13:46.864Z,3751.00
2018-11-21T13:14:47.020Z,3493.00
2018-11-21T13:15:47.618Z,3146.00